Time;durP1;ratioP1;P1;durP2;ratioP2;P2;SDS_P1;SDS_P2;PMS_P1;PMS_P2;Temp;Humidity;BMP_temperature;BMP_pressure;BME280_temperature;BME280_humidity;BME280_pressure;Samples;Min_cycle;Max_cycle;Signal;HPM_P1;HPM_P2
2022/04/26 03:37:45;;;;;;;4.27;2.53;;;;;;;15.17;93.04;99046.66;5111719;28;20206;-67
2022/04/26 03:40:12;;;;;;;4.63;3.03;;;;;;;15.15;93.37;99053.66;5111058;28;20226;-67
2022/04/26 03:42:39;;;;;;;3.57;2.80;;;;;;;15.15;93.29;99051.09;5110788;28;20758;-67
2022/04/26 03:45:07;;;;;;;5.73;3.03;;;;;;;15.13;93.23;99055.47;5111905;28;20282;-67
2022/04/26 03:47:34;;;;;;;4.60;2.87;;;;;;;15.10;93.12;99063.38;5111678;28;20191;-67
2022/04/26 03:50:02;;;;;;;13.30;5.77;;;;;;;14.93;94.47;99059.13;5112358;28;20205;-67
2022/04/26 03:52:29;;;;;;;11.03;4.70;;;;;;;14.80;95.37;99063.25;5108850;28;20206;-67
2022/04/26 03:54:56;;;;;;;5.00;3.90;;;;;;;14.81;96.22;99070.09;5111935;28;20289;-67
2022/04/26 03:57:23;;;;;;;9.27;4.37;;;;;;;14.84;96.41;99069.09;5111146;28;20736;-67
2022/04/26 03:59:50;;;;;;;4.67;3.87;;;;;;;14.84;96.74;99072.53;5111672;28;20285;-68
2022/04/26 04:02:17;;;;;;;5.23;3.90;;;;;;;14.87;97.05;99074.09;5111685;28;20590;-67
2022/04/26 04:04:43;;;;;;;7.80;3.87;;;;;;;14.88;96.78;99074.03;5110287;28;20265;-67
2022/04/26 04:07:12;;;;;;;7.43;3.97;;;;;;;14.89;97.04;99085.19;5109985;28;20282;-67
2022/04/26 04:09:39;;;;;;;9.40;4.00;;;;;;;14.92;96.94;99079.88;5101540;28;20287;-67
2022/04/26 04:12:07;;;;;;;6.07;3.93;;;;;;;14.95;97.18;99074.53;5105597;28;20201;-68
2022/04/26 04:14:34;;;;;;;6.37;3.43;;;;;;;14.94;97.29;99081.44;5109270;28;20581;-67
2022/04/26 04:17:01;;;;;;;6.60;4.03;;;;;;;14.99;97.18;99076.06;5105683;28;20337;-66
2022/04/26 04:19:29;;;;;;;4.23;3.83;;;;;;;15.02;96.79;99086.22;5109077;28;20290;-67
2022/04/26 04:21:56;;;;;;;4.30;3.80;;;;;;;15.05;96.75;99086.03;5110487;28;20230;-67
2022/04/26 04:24:24;;;;;;;7.23;4.20;;;;;;;15.10;96.48;99086.63;5111695;28;20199;-67
2022/04/26 04:26:51;;;;;;;5.67;2.97;;;;;;;15.15;96.00;99085.44;5111965;28;20576;-66
2022/04/26 04:29:18;;;;;;;3.80;3.50;;;;;;;15.21;95.86;99089.47;5111999;28;20213;-67
2022/04/26 04:31:45;;;;;;;6.83;3.80;;;;;;;15.27;95.34;99099.47;5111162;28;20290;-68
2022/04/26 04:34:12;;;;;;;10.53;3.03;;;;;;;15.31;93.87;99090.66;5111379;28;20195;-67
2022/04/26 04:36:39;;;;;;;2.77;2.67;;;;;;;15.49;93.87;99104.34;5110936;28;20250;-67
2022/04/26 04:39:06;;;;;;;3.20;2.90;;;;;;;15.65;93.03;99106.00;5111450;28;20195;-67
2022/04/26 04:41:36;;;;;;;4.40;3.17;;;;;;;15.77;91.80;99098.50;5111302;28;20227;-67
2022/04/26 04:44:07;;;;;;;4.10;2.23;;;;;;;15.98;90.81;99097.25;5111218;28;20214;-67
2022/04/26 04:46:34;;;;;;;2.57;2.33;;;;;;;16.19;90.33;99103.78;5107382;28;20295;-68
2022/04/26 04:49:01;;;;;;;2.63;2.50;;;;;;;16.40;90.52;99105.13;5111027;28;20730;-66
2022/04/26 04:51:28;;;;;;;2.60;2.50;;;;;;;16.62;90.46;99105.56;5111375;28;20201;-67
2022/04/26 04:53:55;;;;;;;3.67;2.67;;;;;;;16.87;87.30;99111.84;5110855;28;20204;-67
2022/04/26 04:56:24;;;;;;;3.10;2.80;;;;;;;17.10;86.56;99116.47;5110878;28;20650;-67
2022/04/26 04:58:53;;;;;;;8.67;1.97;;;;;;;17.29;85.01;99117.00;5110809;28;20196;-67
2022/04/26 05:01:20;;;;;;;2.93;2.30;;;;;;;17.36;84.29;99118.28;5110981;28;20208;-67
2022/04/26 05:03:47;;;;;;;2.33;1.90;;;;;;;17.40;83.30;99119.78;5111446;28;20282;-67
2022/04/26 05:06:15;;;;;;;2.60;2.40;;;;;;;17.47;83.44;99126.25;5110496;28;20282;-67
2022/04/26 05:08:42;;;;;;;14.77;3.10;;;;;;;17.54;82.00;99127.53;5109915;28;20190;-67
2022/04/26 05:11:09;;;;;;;7.40;2.60;;;;;;;17.50;83.09;99105.31;5110266;28;20225;-67
2022/04/26 05:13:36;;;;;;;1.83;1.73;;;;;;;17.73;83.06;99125.47;5110987;28;20191;-67
2022/04/26 05:16:06;;;;;;;3.57;1.77;;;;;;;17.87;81.87;99140.13;5111085;28;20297;-67
2022/04/26 05:18:33;;;;;;;1.53;1.50;;;;;;;17.86;80.68;99132.47;5109496;28;20206;-67
2022/04/26 05:20:59;;;;;;;6.93;2.07;;;;;;;18.02;81.00;99133.97;5114634;28;20285;-68
2022/04/26 05:26:11;;;;;;;6.13;2.27;;;;;;;18.07;80.47;99120.69;5114954;28;20197;-67
2022/04/26 05:28:37;;;;;;;1.63;1.53;;;;;;;18.48;81.00;99142.16;5113517;28;20281;-68
2022/04/26 05:31:06;;;;;;;1.97;1.77;;;;;;;18.79;80.28;99146.16;5113438;28;20289;-67
2022/04/26 05:33:33;;;;;;;3.57;1.87;;;;;;;19.03;82.33;99149.66;5112969;28;20206;-67
2022/04/26 05:36:00;;;;;;;2.37;2.27;;;;;;;19.06;80.23;99146.91;5104111;28;20207;-67
2022/04/26 05:38:27;;;;;;;3.50;2.20;;;;;;;19.11;79.49;99143.97;5108217;27;20307;-67
2022/04/26 05:40:54;;;;;;;3.30;2.73;;;;;;;19.18;79.55;99153.00;5107331;28;20245;-67
2022/04/26 05:43:22;;;;;;;2.47;2.23;;;;;;;18.99;78.55;99143.03;5113621;28;20289;-68
2022/04/26 05:45:49;;;;;;;4.10;2.27;;;;;;;18.98;78.81;99148.34;5112202;28;20297;-68
2022/04/26 05:48:17;;;;;;;9.10;2.97;;;;;;;19.06;79.28;99148.66;5114390;28;20757;-68
2022/04/26 05:50:44;;;;;;;1.97;1.87;;;;;;;19.21;79.24;99155.38;5109715;28;20290;-67
2022/04/26 05:53:11;;;;;;;4.27;2.90;;;;;;;19.38;78.01;99155.06;5113532;28;20211;-67
2022/04/26 05:55:39;;;;;;;3.60;2.37;;;;;;;19.57;77.54;99142.44;5113193;28;20583;-68
2022/04/26 05:58:06;;;;;;;4.17;1.90;;;;;;;19.89;76.27;99167.00;5109077;28;20219;-68
2022/04/26 06:00:33;;;;;;;2.00;1.90;;;;;;;20.16;75.42;99155.53;5112816;28;20203;-66
2022/04/26 06:03:00;;;;;;;2.07;1.87;;;;;;;20.48;73.05;99163.59;5113452;28;20290;-65
2022/04/26 06:05:29;;;;;;;5.53;2.00;;;;;;;20.78;74.12;99159.50;5110917;28;20281;-66
2022/04/26 06:07:56;;;;;;;3.03;2.27;;;;;;;21.00;70.80;99160.50;5113398;28;20718;-65
2022/04/26 06:10:24;;;;;;;3.40;2.27;;;;;;;21.25;70.61;99160.28;5109276;28;20200;-65
2022/04/26 06:12:50;;;;;;;2.23;2.00;;;;;;;21.45;69.58;99167.41;5106928;28;20202;-65
2022/04/26 06:15:18;;;;;;;1.70;1.60;;;;;;;21.72;70.53;99164.38;5108736;28;20283;-70
2022/04/26 06:17:45;;;;;;;1.13;1.13;;;;;;;22.01;70.13;99160.28;5105736;28;20261;-68
2022/04/26 06:20:12;;;;;;;2.07;1.47;;;;;;;22.11;66.29;99150.75;5112462;28;20244;-68
2022/04/26 06:22:41;;;;;;;2.83;1.73;;;;;;;22.24;67.02;99158.44;5112608;28;20582;-68
2022/04/26 06:25:09;;;;;;;7.50;2.30;;;;;;;22.17;64.11;99123.31;5113118;28;20330;-69
2022/04/26 06:27:36;;;;;;;1.80;1.70;;;;;;;22.60;60.67;99152.78;5110407;28;20280;-68
2022/04/26 06:30:03;;;;;;;4.00;1.67;;;;;;;22.82;63.20;99146.59;5111692;28;20739;-67
2022/04/26 06:32:30;;;;;;;6.00;1.80;;;;;;;22.93;62.33;99147.38;5111584;28;20289;-68
2022/04/26 06:34:57;;;;;;;1.23;1.07;;;;;;;22.99;57.84;99146.84;5110028;28;20696;-67
2022/04/26 06:37:24;;;;;;;1.50;1.40;;;;;;;22.84;55.40;99155.16;5112327;28;20213;-68
2022/04/26 06:39:53;;;;;;;1.47;1.33;;;;;;;22.93;55.98;99146.53;5111558;28;20778;-68
2022/04/26 06:42:20;;;;;;;2.43;1.43;;;;;;;23.22;54.80;99151.91;5112511;28;20194;-68
2022/04/26 06:44:47;;;;;;;1.30;1.20;;;;;;;23.52;52.22;99157.13;5111979;28;20199;-67
2022/04/26 06:47:14;;;;;;;1.43;1.33;;;;;;;23.66;50.03;99151.50;5111146;28;20284;-67
2022/04/26 06:49:41;;;;;;;1.20;1.10;;;;;;;24.01;49.40;99149.19;5111865;28;20286;-67
2022/04/26 06:52:07;;;;;;;1.20;1.10;;;;;;;24.23;49.64;99147.31;5112253;28;20202;-67
2022/04/26 06:54:34;;;;;;;1.90;1.20;;;;;;;24.45;49.52;99147.88;5112334;28;20199;-68
2022/04/26 06:57:03;;;;;;;1.93;1.10;;;;;;;24.47;51.09;99140.69;5110506;28;20637;-68
2022/04/26 06:59:30;;;;;;;1.23;1.13;;;;;;;24.69;50.25;99149.19;5111300;28;20202;-67
2022/04/26 07:01:57;;;;;;;1.33;1.23;;;;;;;24.82;49.85;99142.69;5109798;28;20286;-68
2022/04/26 07:04:24;;;;;;;1.07;1.07;;;;;;;24.79;49.71;99145.56;5111423;28;20757;-67
2022/04/26 07:06:51;;;;;;;1.40;1.10;;;;;;;24.85;51.52;99139.78;5111664;28;20202;-67
2022/04/26 07:09:18;;;;;;;1.23;1.20;;;;;;;24.99;48.67;99136.72;5111288;28;20214;-68
2022/04/26 07:11:46;;;;;;;2.60;0.97;;;;;;;25.08;49.60;99141.09;5112398;28;20232;-68
2022/04/26 07:14:15;;;;;;;3.00;1.17;;;;;;;25.07;47.92;99136.81;5111984;28;20234;-68
2022/04/26 07:16:42;;;;;;;2.93;0.90;;;;;;;25.18;45.95;99150.72;5109672;28;20298;-66
2022/04/26 07:19:09;;;;;;;1.37;1.00;;;;;;;25.33;46.34;99155.34;5111155;28;20231;-66
2022/04/26 07:21:36;;;;;;;3.73;1.40;;;;;;;25.49;46.63;99150.31;5110757;28;20726;-66
2022/04/26 07:24:04;;;;;;;2.53;0.80;;;;;;;25.59;45.72;99158.97;5112224;28;20202;-68
2022/04/26 07:26:31;;;;;;;3.20;1.07;;;;;;;25.78;44.16;99160.69;5111001;28;20225;-67
2022/04/26 07:28:57;;;;;;;2.53;0.90;;;;;;;25.96;43.26;99164.13;5112699;28;20277;-67
2022/04/26 07:31:26;;;;;;;1.47;1.37;;;;;;;26.14;43.49;99165.94;5111079;28;20205;-67
2022/04/26 07:36:38;;;;;;;2.87;1.00;;;;;;;26.42;46.22;99154.38;5110964;28;20208;-66
2022/04/26 07:39:06;;;;;;;2.93;1.30;;;;;;;26.67;44.97;99158.84;5112369;28;20226;-67
2022/04/26 07:41:33;;;;;;;1.43;1.40;;;;;;;26.94;41.90;99171.88;5109850;27;20229;-67
2022/04/26 07:44:00;;;;;;;1.43;1.30;;;;;;;27.13;44.27;99158.50;5108598;28;20292;-66
2022/04/26 07:46:28;;;;;;;1.57;1.10;;;;;;;27.28;42.91;99144.72;5111418;28;20292;-66
2022/04/26 07:48:55;;;;;;;1.30;1.13;;;;;;;27.25;40.59;99159.03;5108205;28;20209;-66
2022/04/26 07:51:22;;;;;;;1.07;1.03;;;;;;;27.10;41.43;99161.44;5111518;28;20293;-66
2022/04/26 07:53:49;;;;;;;2.03;0.97;;;;;;;26.70;41.41;99155.06;5111068;28;20294;-65
2022/04/26 07:56:16;;;;;;;2.53;1.33;;;;;;;26.76;42.49;99157.91;5108649;28;20277;-66
2022/04/26 07:58:43;;;;;;;1.20;1.10;;;;;;;26.80;42.38;99148.75;5109462;28;20734;-65
2022/04/26 08:01:11;;;;;;;4.47;1.00;;;;;;;26.73;41.01;99163.47;5111704;28;20286;-67
2022/04/26 08:03:39;;;;;;;2.70;1.27;;;;;;;26.80;42.59;99159.25;5109451;28;20266;-66
2022/04/26 08:06:06;;;;;;;1.23;1.13;;;;;;;26.89;41.86;99155.72;5104607;28;20671;-65
2022/04/26 08:08:33;;;;;;;1.73;1.43;;;;;;;26.70;41.19;99155.91;5102620;28;20284;-67
2022/04/26 08:11:03;;;;;;;3.87;1.43;;;;;;;26.61;41.90;99141.06;5103558;28;20722;-66
2022/04/26 08:13:30;;;;;;;1.83;1.30;;;;;;;26.32;41.60;99159.72;5103098;28;20581;-66
2022/04/26 08:15:58;;;;;;;1.37;1.27;;;;;;;26.24;42.30;99150.94;5105495;28;20262;-66
2022/04/26 08:18:25;;;;;;;1.50;1.13;;;;;;;26.39;42.03;99159.94;5103684;28;20219;-66
2022/04/26 08:20:53;;;;;;;1.10;1.10;;;;;;;26.40;43.24;99146.63;5106227;28;20199;-66
2022/04/26 08:23:20;;;;;;;1.83;1.30;;;;;;;26.23;44.44;99144.03;5098969;28;20230;-66
2022/04/26 08:28:31;;;;;;;8.00;1.50;;;;;;;26.22;43.60;99148.47;5098424;28;20705;-65
2022/04/26 08:30:58;;;;;;;3.60;1.57;;;;;;;26.18;43.58;99141.03;5110180;28;20285;-65
2022/04/26 08:33:25;;;;;;;3.83;1.57;;;;;;;26.25;44.76;99144.72;5110789;28;20205;-66
2022/04/26 08:35:54;;;;;;;1.90;1.53;;;;;;;26.21;46.91;99146.81;5109611;28;20202;-66
2022/04/26 08:38:21;;;;;;;2.80;1.57;;;;;;;26.02;45.13;99142.50;5107806;28;20570;-66
2022/04/26 08:40:48;;;;;;;1.03;1.00;;;;;;;25.88;42.91;99145.66;5108987;28;20237;-66
2022/04/26 08:43:15;;;;;;;4.30;1.37;;;;;;;26.19;45.00;99142.69;5108709;28;20281;-66
2022/04/26 08:45:43;;;;;;;2.27;1.50;;;;;;;25.89;44.78;99131.56;5109782;28;20245;-66
2022/04/26 08:51:03;;;;;;;1.43;1.20;;;;;;;26.00;46.63;99128.72;5077190;28;20650;-66
2022/04/26 08:53:31;;;;;;;1.63;1.43;;;;;;;26.01;44.36;99130.34;5108612;28;20204;-66
2022/04/26 08:56:01;;;;;;;1.70;1.60;;;;;;;25.83;45.71;99137.41;5106746;28;20203;-66
2022/04/26 08:58:31;;;;;;;3.90;1.47;;;;;;;26.03;47.70;99131.03;5110135;28;20598;-66
2022/04/26 09:01:10;;;;;;;2.07;1.97;;;;;;;25.70;45.59;99136.94;5109248;28;20211;-65
2022/04/26 09:03:38;;;;;;;3.70;1.43;;;;;;;25.73;46.49;99125.31;5109491;28;20205;-65
2022/04/26 09:06:11;;;;;;;5.37;1.80;;;;;;;25.59;46.29;99124.00;5110358;28;21655;-66
2022/04/26 09:08:39;;;;;;;1.47;1.37;;;;;;;25.71;47.65;99117.59;5107983;28;20288;-65
2022/04/26 09:11:21;;;;;;;2.97;1.37;;;;;;;25.61;46.38;99108.94;5109722;28;20293;-65
2022/04/26 09:13:48;;;;;;;2.90;1.27;;;;;;;25.76;46.47;99110.09;5111168;28;20255;-65
2022/04/26 09:16:19;;;;;;;4.90;0.90;;;;;;;25.92;41.78;99109.41;5107071;28;20210;-66
2022/04/26 09:18:54;;;;;;;1.10;1.00;;;;;;;25.80;40.70;99106.19;5107738;28;20233;-66
2022/04/26 09:21:26;;;;;;;2.83;0.90;;;;;;;25.57;42.34;99073.47;5108758;28;20194;-66
2022/04/26 09:23:56;;;;;;;2.50;1.00;;;;;;;25.94;40.40;99110.94;5104754;28;20927;-66
2022/04/26 09:26:23;;;;;;;1.27;1.03;;;;;;;25.93;39.83;99105.81;5109378;28;20671;-66
2022/04/26 09:28:51;;;;;;;5.13;1.37;;;;;;;25.93;40.94;99101.38;5108230;28;20206;-66
2022/04/26 09:31:19;;;;;;;4.43;0.90;;;;;;;26.16;41.23;99101.78;5108056;28;20297;-66
2022/04/26 09:33:49;;;;;;;1.00;0.93;;;;;;;26.07;39.56;99102.66;5109675;28;20202;-66
2022/04/26 09:36:19;;;;;;;1.30;0.70;;;;;;;26.23;40.95;99102.00;5107394;28;20210;-66
2022/04/26 09:38:55;;;;;;;1.43;1.00;;;;;;;26.18;40.76;99099.00;5106280;28;20226;-66
2022/04/26 09:41:22;;;;;;;2.60;1.53;;;;;;;26.41;40.74;99095.72;5107067;28;20288;-66
2022/04/26 09:44:01;;;;;;;1.17;0.90;;;;;;;26.35;38.46;99088.47;5107417;28;20641;-66
2022/04/26 09:46:47;;;;;;;0.70;0.70;;;;;;;26.70;40.08;99094.59;5108577;28;20228;-66
2022/04/26 09:49:17;;;;;;;2.37;0.77;;;;;;;26.74;37.96;99094.13;5107171;28;20194;-66
2022/04/26 09:51:46;;;;;;;1.57;0.97;;;;;;;26.61;39.34;99101.63;5109455;28;20212;-66
2022/04/26 09:54:15;;;;;;;6.37;1.03;;;;;;;26.54;38.07;99090.88;5108373;28;20202;-67
2022/04/26 09:56:45;;;;;;;2.10;0.90;;;;;;;26.54;38.68;99090.06;5108116;28;20573;-67
2022/04/26 09:59:15;;;;;;;1.00;0.93;;;;;;;26.62;36.63;99087.50;5108660;28;20696;-66
2022/04/26 10:01:45;;;;;;;2.10;0.83;;;;;;;26.38;38.34;99079.44;5108219;28;20276;-67
2022/04/26 10:04:16;;;;;;;1.13;1.13;;;;;;;26.51;38.94;99079.84;5108993;28;20199;-61
2022/04/26 10:06:46;;;;;;;5.77;0.83;;;;;;;26.38;37.97;99074.19;5111137;27;20195;-62
2022/04/26 10:09:16;;;;;;;3.43;1.03;;;;;;;26.41;38.41;99073.88;5113144;28;20230;-62
2022/04/26 10:11:43;;;;;;;3.27;1.50;;;;;;;26.52;39.10;99076.25;5112700;28;20203;-62
2022/04/26 10:14:11;;;;;;;5.77;1.00;;;;;;;26.58;39.00;99075.63;5115182;27;20567;-67
2022/04/26 10:16:39;;;;;;;1.73;0.87;;;;;;;26.66;39.35;99072.22;5114589;27;20206;-67
2022/04/26 10:19:08;;;;;;;1.80;1.17;;;;;;;26.70;37.65;99079.63;5112849;28;20223;-67
2022/04/26 10:21:47;;;;;;;1.20;0.80;;;;;;;26.66;37.40;99067.78;5113348;28;20285;-63
2022/04/26 10:24:21;;;;;;;1.93;0.83;;;;;;;26.50;39.12;99067.69;5113044;28;20206;-63
2022/04/26 10:26:50;;;;;;;1.10;1.00;;;;;;;26.71;37.67;99070.78;5112758;27;20610;-64
2022/04/26 10:29:22;;;;;;;2.07;0.87;;;;;;;26.79;38.00;99062.09;5113484;28;20205;-63
2022/04/26 10:31:58;;;;;;;2.17;0.70;;;;;;;26.78;38.06;99066.53;5113766;28;20203;-64
2022/04/26 10:34:29;;;;;;;1.93;1.23;;;;;;;26.81;38.11;99066.25;5112660;28;20198;-64
2022/04/26 10:36:59;;;;;;;1.37;1.00;;;;;;;26.85;39.00;99066.78;5111469;28;20211;-63
2022/04/26 10:39:32;;;;;;;0.83;0.83;;;;;;;26.76;37.07;99063.22;5115413;27;20214;-64
2022/04/26 10:42:00;;;;;;;2.87;0.97;;;;;;;26.99;39.85;99071.41;5113804;28;20697;-66
2022/04/26 10:44:33;;;;;;;0.87;0.80;;;;;;;27.02;36.97;99068.47;5110124;28;20592;-67
2022/04/26 10:47:22;;;;;;;0.80;0.80;;;;;;;27.05;39.29;99068.16;5113780;28;20621;-65
2022/04/26 10:49:50;;;;;;;0.87;0.60;;;;;;;27.00;36.07;99076.53;5111545;28;20205;-63
2022/04/26 10:52:36;;;;;;;0.70;0.70;;;;;;;27.10;36.56;99077.25;5113060;28;20207;-64
2022/04/26 10:55:10;;;;;;;2.13;1.03;;;;;;;27.21;36.26;99072.66;5115296;27;20547;-67
2022/04/26 10:57:40;;;;;;;1.03;0.93;;;;;;;26.97;37.73;99068.13;5112966;28;20689;-67
2022/04/26 11:00:09;;;;;;;1.03;0.80;;;;;;;27.11;36.19;99067.50;5107369;28;20268;-65
2022/04/26 11:02:37;;;;;;;3.77;0.70;;;;;;;27.06;36.29;99064.53;5110868;27;20215;-66
2022/04/26 11:05:08;;;;;;;2.23;0.90;;;;;;;26.87;36.10;99055.09;5111177;28;20206;-65
2022/04/26 11:07:36;;;;;;;5.70;1.00;;;;;;;26.90;37.96;99059.22;5111794;28;20198;-63
2022/04/26 11:10:04;;;;;;;3.30;1.10;;;;;;;26.96;40.00;99059.41;5110939;28;20213;-66
2022/04/26 11:12:34;;;;;;;1.30;1.00;;;;;;;26.85;37.37;99072.03;5110420;28;20210;-66
2022/04/26 11:15:02;;;;;;;1.07;1.00;;;;;;;26.81;38.29;99054.91;5111348;28;20206;-64
2022/04/26 11:17:30;;;;;;;1.00;1.00;;;;;;;26.75;36.86;99056.34;5110487;28;20202;-66
2022/04/26 11:19:59;;;;;;;1.07;0.73;;;;;;;26.55;38.43;99049.66;5111843;27;20214;-65
2022/04/26 11:22:28;;;;;;;1.13;0.93;;;;;;;26.29;38.39;99048.81;5110412;28;20234;-66
2022/04/26 11:28:03;;;;;;;3.90;0.80;;;;;;;26.16;41.18;99048.38;5105969;28;20214;-66
2022/04/26 11:30:32;;;;;;;1.23;0.73;;;;;;;26.07;38.98;99045.66;5106705;28;20582;-66
2022/04/26 11:33:00;;;;;;;1.50;0.80;;;;;;;26.10;39.60;99039.31;5111756;27;20196;-68
2022/04/26 11:35:28;;;;;;;1.07;0.97;;;;;;;26.32;39.76;99038.84;5111247;28;20202;-65
2022/04/26 11:37:57;;;;;;;1.23;0.90;;;;;;;26.46;38.61;99034.81;5116837;27;20199;-65
2022/04/26 11:40:27;;;;;;;1.77;0.90;;;;;;;26.43;39.53;99019.34;5111687;28;20706;-66
2022/04/26 11:42:57;;;;;;;1.23;0.80;;;;;;;26.42;39.61;99022.94;5111349;28;20194;-67
2022/04/26 11:45:28;;;;;;;0.80;0.80;;;;;;;26.39;39.42;99018.00;5111807;28;20293;-66
2022/04/26 11:47:56;;;;;;;5.87;0.93;;;;;;;26.59;40.08;99024.69;5111117;27;20195;-66
2022/04/26 11:50:25;;;;;;;0.77;0.77;;;;;;;26.60;40.53;99016.63;5114910;27;20379;-68
2022/04/26 11:52:55;;;;;;;1.90;0.90;;;;;;;26.63;40.37;99021.59;5088520;28;20205;-65
2022/04/26 11:55:27;;;;;;;2.40;1.00;;;;;;;26.25;39.28;99015.94;5111617;28;20198;-65
2022/04/26 11:58:07;;;;;;;1.50;0.87;;;;;;;25.91;39.95;99011.38;5109289;28;20290;-66
2022/04/26 12:00:34;;;;;;;5.30;0.97;;;;;;;26.01;40.71;99024.47;5108753;28;20214;-65
2022/04/26 12:03:02;;;;;;;1.80;1.07;;;;;;;25.72;41.13;99013.41;5110616;28;20210;-66
2022/04/26 12:05:30;;;;;;;6.83;1.00;;;;;;;25.89;42.78;98997.59;5111177;28;20206;-68
2022/04/26 12:07:57;;;;;;;1.40;0.83;;;;;;;25.97;42.44;98996.84;5106237;28;20218;-66
2022/04/26 12:10:29;;;;;;;3.80;1.43;;;;;;;26.07;43.14;98994.94;5109645;28;20191;-66
2022/04/26 12:12:59;;;;;;;1.10;0.93;;;;;;;26.09;43.71;98993.81;5107244;28;20209;-66
2022/04/26 12:15:27;;;;;;;6.03;2.97;;;;;;;25.91;44.05;98990.38;5108910;28;20191;-67
2022/04/26 12:18:09;;;;;;;8.40;3.90;;;;;;;26.20;43.90;98991.94;5104383;28;20203;-67
2022/04/26 12:20:37;;;;;;;3.60;2.63;;;;;;;26.41;42.92;98997.63;5110234;28;20224;-66
2022/04/26 12:23:07;;;;;;;2.30;1.10;;;;;;;26.19;43.64;98995.53;5109452;28;20210;-66
2022/04/26 12:25:36;;;;;;;0.80;0.80;;;;;;;26.34;44.38;98996.59;5107112;28;20815;-66
2022/04/26 12:28:09;;;;;;;1.97;0.93;;;;;;;26.26;42.44;98997.41;5111821;28;20202;-66
2022/04/26 12:30:41;;;;;;;1.13;1.03;;;;;;;26.25;41.19;99008.06;5114342;28;20206;-66
2022/04/26 12:33:09;;;;;;;5.67;1.13;;;;;;;26.16;42.22;98998.44;5105516;28;20195;-66
2022/04/26 12:35:37;;;;;;;6.30;1.30;;;;;;;26.07;40.18;98993.13;5109220;28;20827;-65
2022/04/26 12:38:08;;;;;;;1.93;1.17;;;;;;;26.17;40.61;98985.19;5110604;28;20198;-69
2022/04/26 12:40:36;;;;;;;3.00;1.10;;;;;;;26.16;40.55;98993.19;5110820;28;20652;-69
2022/04/26 12:43:03;;;;;;;2.17;1.10;;;;;;;26.20;41.01;98978.81;5110568;28;20666;-70
2022/04/26 12:45:31;;;;;;;1.10;1.00;;;;;;;26.17;41.51;98982.56;5108902;28;20689;-71
2022/04/26 12:50:50;;;;;;;2.73;1.07;;;;;;;26.21;39.86;98977.81;5111516;28;20201;-65
2022/04/26 12:53:25;;;;;;;1.27;1.00;;;;;;;26.02;38.56;98968.31;5111741;28;20217;-66
2022/04/26 12:55:53;;;;;;;2.03;1.10;;;;;;;25.79;39.12;98967.97;5107474;28;20194;-67
2022/04/26 12:58:36;;;;;;;0.83;0.83;;;;;;;25.76;40.20;98962.19;5111801;28;20202;-63
2022/04/26 13:01:06;;;;;;;3.23;0.90;;;;;;;25.83;39.61;98953.56;5110388;28;20232;-65
2022/04/26 13:03:34;;;;;;;1.17;1.07;;;;;;;25.78;40.78;98950.59;5110833;28;20206;-64
2022/04/26 13:06:08;;;;;;;2.00;1.77;;;;;;;25.85;40.66;98956.84;5111895;28;20199;-66
2022/04/26 13:08:35;;;;;;;3.47;1.67;;;;;;;25.83;41.02;98958.81;5111397;28;21658;-66
2022/04/26 13:11:02;;;;;;;2.87;2.37;;;;;;;26.00;43.32;98949.25;5111504;28;20199;-65
2022/04/26 13:13:29;;;;;;;7.00;2.03;;;;;;;25.96;41.64;98948.72;5112127;28;20191;-66
2022/04/26 13:15:56;;;;;;;4.03;1.70;;;;;;;25.89;42.13;98946.88;5110757;28;20605;-64
2022/04/26 13:18:24;;;;;;;2.43;1.00;;;;;;;25.89;43.23;98936.38;5110691;28;20206;-65
2022/04/26 13:20:52;;;;;;;1.93;1.23;;;;;;;25.87;45.13;98944.41;5110288;28;20254;-66
2022/04/26 13:23:19;;;;;;;1.97;1.87;;;;;;;25.85;45.39;98943.72;5106584;28;20278;-67
2022/04/26 13:25:46;;;;;;;2.47;1.60;;;;;;;25.83;45.06;98943.06;5110121;28;20225;-64
2022/04/26 13:28:13;;;;;;;1.73;1.63;;;;;;;25.72;45.80;98935.41;5111601;28;20210;-65
2022/04/26 13:30:41;;;;;;;2.83;1.23;;;;;;;25.79;42.90;98936.47;5111468;28;20198;-65
2022/04/26 13:33:08;;;;;;;2.23;1.10;;;;;;;25.87;45.13;98935.72;5110004;28;20206;-66
2022/04/26 13:35:38;;;;;;;5.03;1.20;;;;;;;25.94;43.80;98934.94;5110910;28;20208;-64
2022/04/26 13:38:08;;;;;;;4.20;1.50;;;;;;;25.77;45.38;98927.94;5106285;28;20202;-64
2022/04/26 13:40:35;;;;;;;1.60;1.50;;;;;;;25.94;46.41;98939.38;5113030;28;20241;-65
2022/04/26 13:43:03;;;;;;;5.40;1.43;;;;;;;25.89;46.06;98931.13;5115526;28;20719;-64
2022/04/26 13:45:29;;;;;;;2.37;1.87;;;;;;;25.68;45.33;98931.47;5115554;28;20194;-64
2022/04/26 13:47:57;;;;;;;2.40;1.60;;;;;;;25.58;45.66;98928.13;5115662;28;20203;-64
2022/04/26 13:50:24;;;;;;;1.37;1.23;;;;;;;25.57;45.16;98936.97;5115183;28;20665;-66
2022/04/26 13:52:52;;;;;;;2.97;1.40;;;;;;;25.49;44.35;98939.50;5112473;28;20319;-66
2022/04/26 13:55:20;;;;;;;2.83;1.50;;;;;;;25.46;45.94;98931.94;5113326;28;20199;-66
2022/04/26 13:57:47;;;;;;;4.27;1.50;;;;;;;25.53;46.11;98935.59;5112423;28;20772;-68
2022/04/26 14:00:16;;;;;;;1.13;1.10;;;;;;;25.67;45.84;98932.44;5113397;28;20222;-67
2022/04/26 14:02:46;;;;;;;1.63;1.40;;;;;;;25.70;44.91;98932.13;5115378;28;20199;-64
2022/04/26 14:05:13;;;;;;;1.53;1.40;;;;;;;25.71;44.75;98948.72;5114892;28;20207;-66
2022/04/26 14:07:40;;;;;;;2.83;1.57;;;;;;;25.76;44.47;98947.28;5115007;28;20577;-65
2022/04/26 14:10:09;;;;;;;1.63;1.00;;;;;;;25.73;44.54;98947.59;5113174;28;20195;-65
2022/04/26 14:12:37;;;;;;;4.30;1.60;;;;;;;25.71;44.15;98954.81;5114527;28;20582;-66
2022/04/26 14:23:33;;;;;;;2.07;1.20;;;;;;;25.82;43.47;98970.28;5034624;28;20212;-66
2022/04/26 14:26:03;;;;;;;2.63;1.30;;;;;;;25.70;43.19;98953.13;5079203;28;20205;-66
2022/04/26 14:28:31;;;;;;;1.83;1.77;;;;;;;25.70;43.82;98963.66;5113208;28;20202;-65
2022/04/26 14:30:58;;;;;;;5.60;1.60;;;;;;;25.54;43.42;98953.00;5113769;28;20754;-66
2022/04/26 14:33:25;;;;;;;1.77;1.47;;;;;;;25.47;42.32;98965.88;5113235;28;20285;-66
2022/04/26 14:35:52;;;;;;;1.60;1.50;;;;;;;25.27;43.39;98961.75;5113640;28;20199;-66
2022/04/26 14:38:19;;;;;;;1.60;1.27;;;;;;;25.11;44.45;98961.59;5113208;28;20199;-66
2022/04/26 14:40:46;;;;;;;1.63;1.53;;;;;;;25.16;44.81;98962.00;5112355;28;20234;-66
2022/04/26 14:43:14;;;;;;;2.07;1.90;;;;;;;24.97;44.62;98962.94;5113261;28;20203;-65
2022/04/26 14:45:45;;;;;;;2.90;1.60;;;;;;;24.87;46.20;98972.66;5111081;28;20205;-67
2022/04/26 14:48:16;;;;;;;1.53;1.43;;;;;;;24.70;45.45;98973.41;5112082;28;20203;-66
2022/04/26 14:50:44;;;;;;;1.63;1.50;;;;;;;24.62;45.46;98978.53;5109777;28;20195;-67
2022/04/26 14:53:10;;;;;;;2.10;1.80;;;;;;;24.43;46.75;98981.25;5110945;28;20248;-67
2022/04/26 14:55:38;;;;;;;1.67;1.57;;;;;;;24.43;47.33;98989.94;5111843;28;20194;-67
2022/04/26 14:58:06;;;;;;;1.00;1.00;;;;;;;24.32;46.23;98991.91;5109305;28;20198;-67
2022/04/26 15:00:35;;;;;;;2.93;1.63;;;;;;;24.26;47.36;98988.09;5108896;28;20239;-67
2022/04/26 15:03:02;;;;;;;3.73;2.00;;;;;;;24.33;47.15;98990.97;5111507;28;20203;-67
2022/04/26 15:05:29;;;;;;;1.90;1.80;;;;;;;24.31;47.73;98987.63;5112312;28;20194;-67
2022/04/26 15:10:40;;;;;;;3.37;1.70;;;;;;;24.32;49.07;98995.38;5111083;28;20206;-67
2022/04/26 15:18:37;;;;;;;4.55;2.55;;;;;;;24.43;48.46;99017.94;5109760;28;20410;-64
2022/04/26 15:21:08;;;;;;;2.87;2.13;;;;;;;24.38;48.86;99030.66;5111456;28;20218;-65
2022/04/26 15:23:36;;;;;;;4.93;3.73;;;;;;;24.38;50.00;99046.38;5112616;28;20629;-64
2022/04/26 15:26:04;;;;;;;3.33;1.93;;;;;;;24.14;51.68;99069.56;5112986;28;20199;-65
2022/04/26 15:28:31;;;;;;;4.40;1.67;;;;;;;23.68;56.22;99083.34;5111921;28;20199;-63
2022/04/26 15:30:59;;;;;;;4.63;1.90;;;;;;;23.30;61.51;99100.56;5112633;28;20201;-64
2022/04/26 15:33:26;;;;;;;5.93;1.90;;;;;;;23.13;63.93;99108.25;5112362;28;20213;-64
2022/04/26 15:35:53;;;;;;;2.03;1.93;;;;;;;22.83;63.40;99117.75;5107128;28;20229;-64
2022/04/26 15:38:19;;;;;;;2.10;2.00;;;;;;;22.74;61.97;99112.47;5112267;28;20658;-64
2022/04/26 15:40:47;;;;;;;2.07;1.97;;;;;;;22.52;61.08;99105.56;5111871;28;20229;-64
2022/04/26 15:43:15;;;;;;;2.00;1.90;;;;;;;22.04;61.25;99099.16;5112184;28;20205;-64
2022/04/26 15:45:43;;;;;;;1.90;1.80;;;;;;;21.93;63.04;99093.06;5112028;28;20212;-63
2022/04/26 15:48:11;;;;;;;2.13;1.93;;;;;;;21.83;64.46;99083.47;5112467;28;20205;-64
2022/04/26 15:50:41;;;;;;;2.20;2.10;;;;;;;21.67;67.65;99083.88;5111643;28;20212;-64